sensor_id;sensor_type;location;lat;lon;timestamp;temperature;humidity
72576;DHT22;60613;48.658;2.328;2022-07-09T00:00:26;26.80;39.30
72576;DHT22;60613;48.658;2.328;2022-07-09T00:02:51;26.70;39.20
72576;DHT22;60613;48.658;2.328;2022-07-09T00:05:17;26.80;39.30
72576;DHT22;60613;48.658;2.328;2022-07-09T00:07:42;26.80;39.30
72576;DHT22;60613;48.658;2.328;2022-07-09T00:10:08;26.80;39.20
72576;DHT22;60613;48.658;2.328;2022-07-09T00:12:35;26.80;39.30
72576;DHT22;60613;48.658;2.328;2022-07-09T00:15:01;26.70;39.30
72576;DHT22;60613;48.658;2.328;2022-07-09T00:17:27;26.70;39.30
72576;DHT22;60613;48.658;2.328;2022-07-09T00:19:55;26.70;39.30
72576;DHT22;60613;48.658;2.328;2022-07-09T00:22:21;26.70;39.30
72576;DHT22;60613;48.658;2.328;2022-07-09T00:24:47;26.70;39.30
72576;DHT22;60613;48.658;2.328;2022-07-09T00:27:12;26.70;39.30
72576;DHT22;60613;48.658;2.328;2022-07-09T00:29:38;26.70;40.50
72576;DHT22;60613;48.658;2.328;2022-07-09T00:32:04;26.70;39.30
72576;DHT22;60613;48.658;2.328;2022-07-09T00:34:29;26.70;39.30
72576;DHT22;60613;48.658;2.328;2022-07-09T00:36:55;26.70;39.30
72576;DHT22;60613;48.658;2.328;2022-07-09T00:39:21;26.70;39.30
72576;DHT22;60613;48.658;2.328;2022-07-09T00:41:46;26.70;39.30
72576;DHT22;60613;48.658;2.328;2022-07-09T00:44:12;26.70;39.40
72576;DHT22;60613;48.658;2.328;2022-07-09T00:46:37;26.70;39.40
72576;DHT22;60613;48.658;2.328;2022-07-09T00:49:03;26.70;39.30
72576;DHT22;60613;48.658;2.328;2022-07-09T00:51:31;26.70;39.40
72576;DHT22;60613;48.658;2.328;2022-07-09T00:53:58;26.70;39.30
72576;DHT22;60613;48.658;2.328;2022-07-09T00:56:24;26.70;39.30
72576;DHT22;60613;48.658;2.328;2022-07-09T00:58:50;26.70;39.40
72576;DHT22;60613;48.658;2.328;2022-07-09T01:01:16;26.60;39.30
72576;DHT22;60613;48.658;2.328;2022-07-09T01:03:42;26.70;39.30
72576;DHT22;60613;48.658;2.328;2022-07-09T01:06:08;26.60;39.30
72576;DHT22;60613;48.658;2.328;2022-07-09T01:08:34;26.60;39.30
72576;DHT22;60613;48.658;2.328;2022-07-09T01:11:00;26.60;39.30
72576;DHT22;60613;48.658;2.328;2022-07-09T01:13:26;26.60;39.30
72576;DHT22;60613;48.658;2.328;2022-07-09T01:15:52;26.60;39.40
72576;DHT22;60613;48.658;2.328;2022-07-09T01:18:18;26.60;39.40
72576;DHT22;60613;48.658;2.328;2022-07-09T01:20:44;26.60;39.40
72576;DHT22;60613;48.658;2.328;2022-07-09T01:23:10;26.60;39.40
72576;DHT22;60613;48.658;2.328;2022-07-09T01:25:40;26.60;39.30
72576;DHT22;60613;48.658;2.328;2022-07-09T01:28:08;26.60;39.40
72576;DHT22;60613;48.658;2.328;2022-07-09T01:30:36;26.60;39.40
72576;DHT22;60613;48.658;2.328;2022-07-09T01:33:02;26.60;39.40
72576;DHT22;60613;48.658;2.328;2022-07-09T01:35:28;26.60;39.40
72576;DHT22;60613;48.658;2.328;2022-07-09T01:37:54;26.60;39.40
72576;DHT22;60613;48.658;2.328;2022-07-09T01:40:20;26.60;39.40
72576;DHT22;60613;48.658;2.328;2022-07-09T01:42:46;26.60;39.40
72576;DHT22;60613;48.658;2.328;2022-07-09T01:45:13;26.60;39.50
72576;DHT22;60613;48.658;2.328;2022-07-09T01:47:38;26.60;39.50
72576;DHT22;60613;48.658;2.328;2022-07-09T01:50:05;26.60;39.40
72576;DHT22;60613;48.658;2.328;2022-07-09T01:52:31;26.60;39.50
72576;DHT22;60613;48.658;2.328;2022-07-09T01:54:56;26.60;39.40
72576;DHT22;60613;48.658;2.328;2022-07-09T01:57:22;26.60;39.50
72576;DHT22;60613;48.658;2.328;2022-07-09T01:59:48;26.50;40.70
72576;DHT22;60613;48.658;2.328;2022-07-09T02:02:13;26.50;39.40
72576;DHT22;60613;48.658;2.328;2022-07-09T02:04:39;26.50;39.40
72576;DHT22;60613;48.658;2.328;2022-07-09T02:07:05;26.50;39.50
72576;DHT22;60613;48.658;2.328;2022-07-09T02:09:30;26.50;39.40
72576;DHT22;60613;48.658;2.328;2022-07-09T02:11:56;26.50;39.40
72576;DHT22;60613;48.658;2.328;2022-07-09T02:14:22;26.50;39.40
72576;DHT22;60613;48.658;2.328;2022-07-09T02:16:48;26.50;39.40
72576;DHT22;60613;48.658;2.328;2022-07-09T02:19:14;26.50;39.40
72576;DHT22;60613;48.658;2.328;2022-07-09T02:21:40;26.50;39.40
72576;DHT22;60613;48.658;2.328;2022-07-09T02:24:06;26.50;39.50
72576;DHT22;60613;48.658;2.328;2022-07-09T02:26:31;26.50;40.70
72576;DHT22;60613;48.658;2.328;2022-07-09T02:28:58;26.50;39.50
72576;DHT22;60613;48.658;2.328;2022-07-09T02:31:24;26.50;39.40
72576;DHT22;60613;48.658;2.328;2022-07-09T02:33:50;26.50;39.40
72576;DHT22;60613;48.658;2.328;2022-07-09T02:36:16;26.50;39.50
72576;DHT22;60613;48.658;2.328;2022-07-09T02:38:42;26.50;39.50
72576;DHT22;60613;48.658;2.328;2022-07-09T02:41:07;26.50;40.70
72576;DHT22;60613;48.658;2.328;2022-07-09T02:43:33;26.50;39.60
72576;DHT22;60613;48.658;2.328;2022-07-09T02:45:58;26.50;39.50
72576;DHT22;60613;48.658;2.328;2022-07-09T02:48:25;26.50;40.70
72576;DHT22;60613;48.658;2.328;2022-07-09T02:50:51;26.50;39.40
72576;DHT22;60613;48.658;2.328;2022-07-09T02:53:17;26.50;39.50
72576;DHT22;60613;48.658;2.328;2022-07-09T02:55:44;26.50;39.50
72576;DHT22;60613;48.658;2.328;2022-07-09T02:58:09;26.40;39.50
72576;DHT22;60613;48.658;2.328;2022-07-09T03:00:36;26.40;39.50
72576;DHT22;60613;48.658;2.328;2022-07-09T03:03:02;26.40;39.50
72576;DHT22;60613;48.658;2.328;2022-07-09T03:05:27;26.40;39.50
72576;DHT22;60613;48.658;2.328;2022-07-09T03:07:53;26.40;39.50
72576;DHT22;60613;48.658;2.328;2022-07-09T03:10:19;26.40;39.50
72576;DHT22;60613;48.658;2.328;2022-07-09T03:12:44;26.40;40.70
72576;DHT22;60613;48.658;2.328;2022-07-09T03:15:10;26.40;39.50
72576;DHT22;60613;48.658;2.328;2022-07-09T03:17:38;26.40;39.50
72576;DHT22;60613;48.658;2.328;2022-07-09T03:20:04;26.40;39.50
72576;DHT22;60613;48.658;2.328;2022-07-09T03:22:30;26.40;39.50
72576;DHT22;60613;48.658;2.328;2022-07-09T03:24:55;26.40;39.50
72576;DHT22;60613;48.658;2.328;2022-07-09T03:27:22;26.40;39.50
72576;DHT22;60613;48.658;2.328;2022-07-09T03:29:47;26.40;39.60
72576;DHT22;60613;48.658;2.328;2022-07-09T03:32:13;26.40;39.60
72576;DHT22;60613;48.658;2.328;2022-07-09T03:34:39;26.30;39.60
72576;DHT22;60613;48.658;2.328;2022-07-09T03:37:05;26.30;39.50
72576;DHT22;60613;48.658;2.328;2022-07-09T03:39:31;26.40;39.60
72576;DHT22;60613;48.658;2.328;2022-07-09T03:41:56;26.40;39.60
72576;DHT22;60613;48.658;2.328;2022-07-09T03:44:23;26.40;39.60
72576;DHT22;60613;48.658;2.328;2022-07-09T03:46:49;26.40;39.60
72576;DHT22;60613;48.658;2.328;2022-07-09T03:49:14;26.40;39.60
72576;DHT22;60613;48.658;2.328;2022-07-09T03:51:40;26.30;39.60
72576;DHT22;60613;48.658;2.328;2022-07-09T03:54:06;26.30;39.50
72576;DHT22;60613;48.658;2.328;2022-07-09T03:56:31;26.30;39.60
72576;DHT22;60613;48.658;2.328;2022-07-09T03:58:57;26.30;39.60
72576;DHT22;60613;48.658;2.328;2022-07-09T04:01:22;26.30;39.60
72576;DHT22;60613;48.658;2.328;2022-07-09T04:03:48;26.30;39.60
72576;DHT22;60613;48.658;2.328;2022-07-09T04:06:13;26.30;39.70
72576;DHT22;60613;48.658;2.328;2022-07-09T04:08:39;26.30;39.60
72576;DHT22;60613;48.658;2.328;2022-07-09T04:11:05;26.30;39.60
72576;DHT22;60613;48.658;2.328;2022-07-09T04:13:31;26.20;39.60
72576;DHT22;60613;48.658;2.328;2022-07-09T04:15:56;26.30;39.70
72576;DHT22;60613;48.658;2.328;2022-07-09T04:18:22;26.20;39.60
72576;DHT22;60613;48.658;2.328;2022-07-09T04:20:47;26.30;39.60
72576;DHT22;60613;48.658;2.328;2022-07-09T04:23:13;26.30;39.60
72576;DHT22;60613;48.658;2.328;2022-07-09T04:25:38;26.20;39.50
72576;DHT22;60613;48.658;2.328;2022-07-09T04:28:04;26.20;39.60
72576;DHT22;60613;48.658;2.328;2022-07-09T04:30:30;26.20;39.50
72576;DHT22;60613;48.658;2.328;2022-07-09T04:32:56;26.20;39.50
72576;DHT22;60613;48.658;2.328;2022-07-09T04:35:22;26.20;39.60
72576;DHT22;60613;48.658;2.328;2022-07-09T04:37:48;26.20;39.60
72576;DHT22;60613;48.658;2.328;2022-07-09T04:40:13;26.30;39.50
72576;DHT22;60613;48.658;2.328;2022-07-09T04:42:39;26.20;39.50
72576;DHT22;60613;48.658;2.328;2022-07-09T04:45:06;26.20;39.50
72576;DHT22;60613;48.658;2.328;2022-07-09T04:47:31;26.20;39.50
72576;DHT22;60613;48.658;2.328;2022-07-09T04:49:57;26.20;40.80
72576;DHT22;60613;48.658;2.328;2022-07-09T04:52:23;26.20;39.50
72576;DHT22;60613;48.658;2.328;2022-07-09T04:54:52;26.20;39.60
72576;DHT22;60613;48.658;2.328;2022-07-09T04:57:18;26.20;39.50
72576;DHT22;60613;48.658;2.328;2022-07-09T04:59:43;26.20;39.50
72576;DHT22;60613;48.658;2.328;2022-07-09T05:02:09;26.20;39.50
72576;DHT22;60613;48.658;2.328;2022-07-09T05:04:34;26.20;39.50
72576;DHT22;60613;48.658;2.328;2022-07-09T05:07:00;26.20;39.60
72576;DHT22;60613;48.658;2.328;2022-07-09T05:09:26;26.20;39.60
72576;DHT22;60613;48.658;2.328;2022-07-09T05:11:51;26.20;39.60
72576;DHT22;60613;48.658;2.328;2022-07-09T05:14:17;26.20;39.60
72576;DHT22;60613;48.658;2.328;2022-07-09T05:16:43;26.20;39.60
72576;DHT22;60613;48.658;2.328;2022-07-09T05:19:10;26.20;39.70
72576;DHT22;60613;48.658;2.328;2022-07-09T05:21:38;26.10;39.70
72576;DHT22;60613;48.658;2.328;2022-07-09T05:24:04;26.10;39.70
72576;DHT22;60613;48.658;2.328;2022-07-09T05:26:31;26.20;39.70
72576;DHT22;60613;48.658;2.328;2022-07-09T05:28:56;26.10;39.60
72576;DHT22;60613;48.658;2.328;2022-07-09T05:31:22;26.10;39.60
72576;DHT22;60613;48.658;2.328;2022-07-09T05:33:48;26.10;39.60
72576;DHT22;60613;48.658;2.328;2022-07-09T05:36:14;26.10;40.80
72576;DHT22;60613;48.658;2.328;2022-07-09T05:38:39;26.10;39.70
72576;DHT22;60613;48.658;2.328;2022-07-09T05:41:05;26.10;39.80
72576;DHT22;60613;48.658;2.328;2022-07-09T05:43:32;26.10;39.70
72576;DHT22;60613;48.658;2.328;2022-07-09T05:45:58;26.10;39.70
72576;DHT22;60613;48.658;2.328;2022-07-09T05:48:24;26.10;39.60
72576;DHT22;60613;48.658;2.328;2022-07-09T05:50:50;26.10;39.70
72576;DHT22;60613;48.658;2.328;2022-07-09T05:53:15;26.10;40.90
72576;DHT22;60613;48.658;2.328;2022-07-09T05:55:41;26.10;39.80
72576;DHT22;60613;48.658;2.328;2022-07-09T05:58:07;26.10;39.60
72576;DHT22;60613;48.658;2.328;2022-07-09T06:00:33;26.10;39.70
72576;DHT22;60613;48.658;2.328;2022-07-09T06:02:58;26.10;39.70
72576;DHT22;60613;48.658;2.328;2022-07-09T06:05:24;26.10;39.70
72576;DHT22;60613;48.658;2.328;2022-07-09T06:07:49;26.00;39.70
72576;DHT22;60613;48.658;2.328;2022-07-09T06:10:15;26.00;39.60
72576;DHT22;60613;48.658;2.328;2022-07-09T06:12:42;26.10;39.80
72576;DHT22;60613;48.658;2.328;2022-07-09T06:15:10;26.00;39.60
72576;DHT22;60613;48.658;2.328;2022-07-09T06:17:36;26.10;39.80
72576;DHT22;60613;48.658;2.328;2022-07-09T06:20:01;26.10;39.80
72576;DHT22;60613;48.658;2.328;2022-07-09T06:22:27;26.00;39.80
72576;DHT22;60613;48.658;2.328;2022-07-09T06:24:52;26.00;39.70
72576;DHT22;60613;48.658;2.328;2022-07-09T06:27:18;26.00;39.70
72576;DHT22;60613;48.658;2.328;2022-07-09T06:29:43;26.00;39.60
72576;DHT22;60613;48.658;2.328;2022-07-09T06:32:09;26.00;39.80
72576;DHT22;60613;48.658;2.328;2022-07-09T06:34:35;26.00;39.80
72576;DHT22;60613;48.658;2.328;2022-07-09T06:37:00;26.00;39.70
72576;DHT22;60613;48.658;2.328;2022-07-09T06:39:26;26.00;39.80
72576;DHT22;60613;48.658;2.328;2022-07-09T06:42:10;26.00;39.80
72576;DHT22;60613;48.658;2.328;2022-07-09T06:44:37;26.00;39.70
72576;DHT22;60613;48.658;2.328;2022-07-09T06:47:04;26.00;39.80
72576;DHT22;60613;48.658;2.328;2022-07-09T06:49:29;26.00;39.70
72576;DHT22;60613;48.658;2.328;2022-07-09T06:51:55;26.00;39.70
72576;DHT22;60613;48.658;2.328;2022-07-09T06:54:21;26.00;39.80
72576;DHT22;60613;48.658;2.328;2022-07-09T06:56:47;26.00;39.90
72576;DHT22;60613;48.658;2.328;2022-07-09T06:59:12;26.00;39.80
72576;DHT22;60613;48.658;2.328;2022-07-09T07:01:39;26.00;39.90
72576;DHT22;60613;48.658;2.328;2022-07-09T07:04:05;26.00;39.90
72576;DHT22;60613;48.658;2.328;2022-07-09T07:06:31;26.00;39.90
72576;DHT22;60613;48.658;2.328;2022-07-09T07:08:57;26.00;39.90
72576;DHT22;60613;48.658;2.328;2022-07-09T07:11:22;26.00;40.00
72576;DHT22;60613;48.658;2.328;2022-07-09T07:13:48;26.00;40.00
72576;DHT22;60613;48.658;2.328;2022-07-09T07:16:14;26.00;41.20
72576;DHT22;60613;48.658;2.328;2022-07-09T07:18:39;26.00;40.10
72576;DHT22;60613;48.658;2.328;2022-07-09T07:21:05;26.00;40.10
72576;DHT22;60613;48.658;2.328;2022-07-09T07:23:31;26.00;40.00
72576;DHT22;60613;48.658;2.328;2022-07-09T07:26:00;26.00;39.90
72576;DHT22;60613;48.658;2.328;2022-07-09T07:28:26;26.00;39.80
72576;DHT22;60613;48.658;2.328;2022-07-09T07:30:52;26.00;39.80
72576;DHT22;60613;48.658;2.328;2022-07-09T07:33:17;26.00;39.80
72576;DHT22;60613;48.658;2.328;2022-07-09T07:35:46;26.00;39.60
72576;DHT22;60613;48.658;2.328;2022-07-09T07:38:12;26.00;40.90
72576;DHT22;60613;48.658;2.328;2022-07-09T07:40:37;26.00;39.60
72576;DHT22;60613;48.658;2.328;2022-07-09T07:43:03;26.00;39.70
72576;DHT22;60613;48.658;2.328;2022-07-09T07:45:29;26.00;39.80
72576;DHT22;60613;48.658;2.328;2022-07-09T07:47:55;26.00;39.70
72576;DHT22;60613;48.658;2.328;2022-07-09T07:50:23;26.00;39.80
72576;DHT22;60613;48.658;2.328;2022-07-09T07:52:50;26.00;39.80
72576;DHT22;60613;48.658;2.328;2022-07-09T07:55:16;26.00;39.80
72576;DHT22;60613;48.658;2.328;2022-07-09T07:57:42;26.00;39.80
72576;DHT22;60613;48.658;2.328;2022-07-09T08:00:08;26.00;39.70
72576;DHT22;60613;48.658;2.328;2022-07-09T08:02:34;26.00;39.70
72576;DHT22;60613;48.658;2.328;2022-07-09T08:05:00;26.00;39.70
72576;DHT22;60613;48.658;2.328;2022-07-09T08:07:26;26.00;39.60
72576;DHT22;60613;48.658;2.328;2022-07-09T08:09:52;26.00;39.70
72576;DHT22;60613;48.658;2.328;2022-07-09T08:12:18;26.00;39.70
72576;DHT22;60613;48.658;2.328;2022-07-09T08:14:44;26.00;39.70
72576;DHT22;60613;48.658;2.328;2022-07-09T08:17:09;26.00;39.60
72576;DHT22;60613;48.658;2.328;2022-07-09T08:19:35;26.10;39.80
72576;DHT22;60613;48.658;2.328;2022-07-09T08:22:01;26.10;39.70
72576;DHT22;60613;48.658;2.328;2022-07-09T08:24:26;26.00;39.60
72576;DHT22;60613;48.658;2.328;2022-07-09T08:26:52;26.10;39.70
72576;DHT22;60613;48.658;2.328;2022-07-09T08:29:18;26.10;39.80
72576;DHT22;60613;48.658;2.328;2022-07-09T08:31:43;26.10;39.70
72576;DHT22;60613;48.658;2.328;2022-07-09T08:34:09;26.10;39.70
72576;DHT22;60613;48.658;2.328;2022-07-09T08:36:35;26.10;39.70
72576;DHT22;60613;48.658;2.328;2022-07-09T08:39:00;26.10;39.70
72576;DHT22;60613;48.658;2.328;2022-07-09T08:41:26;26.10;39.70
72576;DHT22;60613;48.658;2.328;2022-07-09T08:43:52;26.10;39.70
72576;DHT22;60613;48.658;2.328;2022-07-09T08:46:18;26.10;39.70
72576;DHT22;60613;48.658;2.328;2022-07-09T08:48:45;26.10;40.90
72576;DHT22;60613;48.658;2.328;2022-07-09T08:51:11;26.10;39.70
72576;DHT22;60613;48.658;2.328;2022-07-09T08:53:41;26.10;39.70
72576;DHT22;60613;48.658;2.328;2022-07-09T08:56:08;26.10;40.80
72576;DHT22;60613;48.658;2.328;2022-07-09T08:58:34;26.10;39.70
72576;DHT22;60613;48.658;2.328;2022-07-09T09:01:00;26.10;39.60
72576;DHT22;60613;48.658;2.328;2022-07-09T09:03:26;26.10;39.70
72576;DHT22;60613;48.658;2.328;2022-07-09T09:06:07;26.20;39.70
72576;DHT22;60613;48.658;2.328;2022-07-09T09:08:44;26.20;39.70
72576;DHT22;60613;48.658;2.328;2022-07-09T09:11:16;26.10;39.70
72576;DHT22;60613;48.658;2.328;2022-07-09T09:13:46;26.20;39.80
72576;DHT22;60613;48.658;2.328;2022-07-09T09:16:13;26.10;39.60
72576;DHT22;60613;48.658;2.328;2022-07-09T09:18:46;26.10;39.60
72576;DHT22;60613;48.658;2.328;2022-07-09T09:21:14;26.20;39.70
72576;DHT22;60613;48.658;2.328;2022-07-09T09:23:50;26.20;39.60
72576;DHT22;60613;48.658;2.328;2022-07-09T09:26:25;26.20;39.60
72576;DHT22;60613;48.658;2.328;2022-07-09T09:28:58;26.20;39.60
72576;DHT22;60613;48.658;2.328;2022-07-09T09:31:31;26.20;39.60
72576;DHT22;60613;48.658;2.328;2022-07-09T09:34:10;26.20;39.60
72576;DHT22;60613;48.658;2.328;2022-07-09T09:36:40;26.20;39.60
72576;DHT22;60613;48.658;2.328;2022-07-09T09:39:20;26.20;39.60
72576;DHT22;60613;48.658;2.328;2022-07-09T09:41:51;26.20;39.60
72576;DHT22;60613;48.658;2.328;2022-07-09T09:44:31;26.20;40.80
72576;DHT22;60613;48.658;2.328;2022-07-09T09:47:03;26.20;39.70
72576;DHT22;60613;48.658;2.328;2022-07-09T09:49:29;26.20;39.70
72576;DHT22;60613;48.658;2.328;2022-07-09T09:52:10;26.20;39.60
72576;DHT22;60613;48.658;2.328;2022-07-09T09:54:38;26.20;39.60
72576;DHT22;60613;48.658;2.328;2022-07-09T09:57:08;26.20;39.60
72576;DHT22;60613;48.658;2.328;2022-07-09T09:59:40;26.20;39.70
72576;DHT22;60613;48.658;2.328;2022-07-09T10:02:06;26.20;39.60
72576;DHT22;60613;48.658;2.328;2022-07-09T10:04:32;26.20;39.60
72576;DHT22;60613;48.658;2.328;2022-07-09T10:07:00;26.20;39.60
72576;DHT22;60613;48.658;2.328;2022-07-09T10:09:26;26.30;39.70
72576;DHT22;60613;48.658;2.328;2022-07-09T10:11:52;26.30;39.60
72576;DHT22;60613;48.658;2.328;2022-07-09T10:14:38;26.30;39.60
72576;DHT22;60613;48.658;2.328;2022-07-09T10:17:15;26.30;39.50
72576;DHT22;60613;48.658;2.328;2022-07-09T10:19:51;26.30;39.50
72576;DHT22;60613;48.658;2.328;2022-07-09T10:22:18;26.30;39.60
72576;DHT22;60613;48.658;2.328;2022-07-09T10:24:45;26.30;39.60
72576;DHT22;60613;48.658;2.328;2022-07-09T10:27:12;26.30;39.60
72576;DHT22;60613;48.658;2.328;2022-07-09T10:29:58;26.30;39.60
72576;DHT22;60613;48.658;2.328;2022-07-09T10:32:33;26.30;39.60
72576;DHT22;60613;48.658;2.328;2022-07-09T10:35:05;26.30;39.50
72576;DHT22;60613;48.658;2.328;2022-07-09T10:37:35;26.40;39.70
72576;DHT22;60613;48.658;2.328;2022-07-09T10:40:08;26.30;39.60
72576;DHT22;60613;48.658;2.328;2022-07-09T10:42:34;26.30;39.60
72576;DHT22;60613;48.658;2.328;2022-07-09T10:45:00;26.40;39.80
72576;DHT22;60613;48.658;2.328;2022-07-09T10:47:37;26.40;39.80
72576;DHT22;60613;48.658;2.328;2022-07-09T10:50:07;26.40;39.60
72576;DHT22;60613;48.658;2.328;2022-07-09T10:52:34;26.40;39.60
72576;DHT22;60613;48.658;2.328;2022-07-09T10:55:00;26.40;39.60
72576;DHT22;60613;48.658;2.328;2022-07-09T10:57:25;26.40;39.60
72576;DHT22;60613;48.658;2.328;2022-07-09T10:59:51;26.40;40.80
72576;DHT22;60613;48.658;2.328;2022-07-09T11:02:21;26.40;39.60
72576;DHT22;60613;48.658;2.328;2022-07-09T11:04:51;26.40;39.60
72576;DHT22;60613;48.658;2.328;2022-07-09T11:07:24;26.40;39.50
72576;DHT22;60613;48.658;2.328;2022-07-09T11:09:51;26.40;39.60
72576;DHT22;60613;48.658;2.328;2022-07-09T11:12:21;26.40;39.60
72576;DHT22;60613;48.658;2.328;2022-07-09T11:14:48;26.40;39.60
72576;DHT22;60613;48.658;2.328;2022-07-09T11:17:18;26.40;39.60
72576;DHT22;60613;48.658;2.328;2022-07-09T11:19:45;26.50;39.60
72576;DHT22;60613;48.658;2.328;2022-07-09T11:22:12;26.50;39.60
72576;DHT22;60613;48.658;2.328;2022-07-09T11:24:37;26.40;39.60
72576;DHT22;60613;48.658;2.328;2022-07-09T11:27:04;26.40;39.60
72576;DHT22;60613;48.658;2.328;2022-07-09T11:29:30;26.50;39.60
72576;DHT22;60613;48.658;2.328;2022-07-09T11:31:56;26.50;39.50
72576;DHT22;60613;48.658;2.328;2022-07-09T11:34:22;26.50;39.50
72576;DHT22;60613;48.658;2.328;2022-07-09T11:36:53;26.50;39.50
72576;DHT22;60613;48.658;2.328;2022-07-09T11:41:52;26.50;39.50
72576;DHT22;60613;48.658;2.328;2022-07-09T11:47:07;26.50;39.50
72576;DHT22;60613;48.658;2.328;2022-07-09T11:49:42;26.50;39.50
72576;DHT22;60613;48.658;2.328;2022-07-09T11:52:24;26.50;39.50
72576;DHT22;60613;48.658;2.328;2022-07-09T11:54:58;26.50;39.40
72576;DHT22;60613;48.658;2.328;2022-07-09T11:57:24;26.50;39.40
72576;DHT22;60613;48.658;2.328;2022-07-09T11:59:50;26.50;39.40
72576;DHT22;60613;48.658;2.328;2022-07-09T12:02:29;26.60;39.50
72576;DHT22;60613;48.658;2.328;2022-07-09T12:04:56;26.60;39.40
72576;DHT22;60613;48.658;2.328;2022-07-09T12:07:22;26.60;39.40
72576;DHT22;60613;48.658;2.328;2022-07-09T12:10:07;26.60;39.30
72576;DHT22;60613;48.658;2.328;2022-07-09T12:12:34;26.60;39.30
72576;DHT22;60613;48.658;2.328;2022-07-09T12:15:02;26.60;39.40
72576;DHT22;60613;48.658;2.328;2022-07-09T12:17:29;26.60;39.40
72576;DHT22;60613;48.658;2.328;2022-07-09T12:19:56;26.60;40.60
72576;DHT22;60613;48.658;2.328;2022-07-09T12:22:22;26.60;39.30
72576;DHT22;60613;48.658;2.328;2022-07-09T12:24:53;26.70;39.40
72576;DHT22;60613;48.658;2.328;2022-07-09T12:27:20;26.70;39.30
72576;DHT22;60613;48.658;2.328;2022-07-09T12:29:46;26.60;39.30
72576;DHT22;60613;48.658;2.328;2022-07-09T12:32:12;26.70;39.40
72576;DHT22;60613;48.658;2.328;2022-07-09T12:34:38;26.70;39.40
72576;DHT22;60613;48.658;2.328;2022-07-09T12:37:04;26.70;39.30
72576;DHT22;60613;48.658;2.328;2022-07-09T12:39:29;26.70;39.40
72576;DHT22;60613;48.658;2.328;2022-07-09T12:41:55;26.70;39.40
72576;DHT22;60613;48.658;2.328;2022-07-09T12:44:21;26.60;39.30
72576;DHT22;60613;48.658;2.328;2022-07-09T12:46:47;26.70;39.40
72576;DHT22;60613;48.658;2.328;2022-07-09T12:49:12;26.70;39.30
72576;DHT22;60613;48.658;2.328;2022-07-09T12:51:38;26.70;40.50
72576;DHT22;60613;48.658;2.328;2022-07-09T12:54:03;26.70;39.30
72576;DHT22;60613;48.658;2.328;2022-07-09T12:56:29;26.70;39.40
72576;DHT22;60613;48.658;2.328;2022-07-09T12:58:55;26.70;39.30
72576;DHT22;60613;48.658;2.328;2022-07-09T13:01:21;26.70;39.30
72576;DHT22;60613;48.658;2.328;2022-07-09T13:03:46;26.70;39.30
72576;DHT22;60613;48.658;2.328;2022-07-09T13:06:12;26.70;39.40
72576;DHT22;60613;48.658;2.328;2022-07-09T13:08:59;26.70;40.40
72576;DHT22;60613;48.658;2.328;2022-07-09T13:11:26;26.70;39.30
72576;DHT22;60613;48.658;2.328;2022-07-09T13:13:52;26.70;39.30
72576;DHT22;60613;48.658;2.328;2022-07-09T13:16:17;26.80;39.30
72576;DHT22;60613;48.658;2.328;2022-07-09T13:18:43;26.80;39.30
72576;DHT22;60613;48.658;2.328;2022-07-09T13:21:09;26.80;39.40
72576;DHT22;60613;48.658;2.328;2022-07-09T13:23:35;26.80;39.40
72576;DHT22;60613;48.658;2.328;2022-07-09T13:26:02;26.80;39.30
72576;DHT22;60613;48.658;2.328;2022-07-09T13:28:27;26.80;39.30
72576;DHT22;60613;48.658;2.328;2022-07-09T13:30:53;26.80;39.30
72576;DHT22;60613;48.658;2.328;2022-07-09T13:33:18;26.80;39.30
72576;DHT22;60613;48.658;2.328;2022-07-09T13:35:44;26.80;39.30
72576;DHT22;60613;48.658;2.328;2022-07-09T13:38:10;26.80;39.30
72576;DHT22;60613;48.658;2.328;2022-07-09T13:40:36;26.80;39.30
72576;DHT22;60613;48.658;2.328;2022-07-09T13:43:02;26.80;39.30
72576;DHT22;60613;48.658;2.328;2022-07-09T13:45:28;26.80;39.20
72576;DHT22;60613;48.658;2.328;2022-07-09T13:47:54;26.80;39.20
72576;DHT22;60613;48.658;2.328;2022-07-09T13:50:20;26.80;39.20
72576;DHT22;60613;48.658;2.328;2022-07-09T13:52:46;26.90;39.30
72576;DHT22;60613;48.658;2.328;2022-07-09T13:55:12;26.90;39.30
72576;DHT22;60613;48.658;2.328;2022-07-09T13:57:37;26.90;39.30
72576;DHT22;60613;48.658;2.328;2022-07-09T14:00:05;26.90;39.20
72576;DHT22;60613;48.658;2.328;2022-07-09T14:02:31;26.90;39.30
72576;DHT22;60613;48.658;2.328;2022-07-09T14:04:59;26.90;39.30
72576;DHT22;60613;48.658;2.328;2022-07-09T14:07:25;26.90;39.30
72576;DHT22;60613;48.658;2.328;2022-07-09T14:09:51;26.90;40.50
72576;DHT22;60613;48.658;2.328;2022-07-09T14:12:16;26.90;39.20
72576;DHT22;60613;48.658;2.328;2022-07-09T14:14:42;26.90;39.20
72576;DHT22;60613;48.658;2.328;2022-07-09T14:17:08;26.90;39.40
72576;DHT22;60613;48.658;2.328;2022-07-09T14:19:34;26.90;39.20
72576;DHT22;60613;48.658;2.328;2022-07-09T14:21:59;26.90;39.30
72576;DHT22;60613;48.658;2.328;2022-07-09T14:24:25;26.90;39.20
72576;DHT22;60613;48.658;2.328;2022-07-09T14:26:51;27.00;39.30
72576;DHT22;60613;48.658;2.328;2022-07-09T14:29:17;27.00;39.30
72576;DHT22;60613;48.658;2.328;2022-07-09T14:31:43;27.00;39.30
72576;DHT22;60613;48.658;2.328;2022-07-09T14:34:09;27.00;39.20
72576;DHT22;60613;48.658;2.328;2022-07-09T14:36:34;27.00;39.20
72576;DHT22;60613;48.658;2.328;2022-07-09T14:39:01;27.00;39.20
72576;DHT22;60613;48.658;2.328;2022-07-09T14:41:28;27.00;39.20
72576;DHT22;60613;48.658;2.328;2022-07-09T14:43:54;27.00;39.20
72576;DHT22;60613;48.658;2.328;2022-07-09T14:46:20;27.00;39.20
72576;DHT22;60613;48.658;2.328;2022-07-09T14:48:46;27.00;39.10
72576;DHT22;60613;48.658;2.328;2022-07-09T14:51:12;27.00;39.20
72576;DHT22;60613;48.658;2.328;2022-07-09T14:53:38;27.10;39.30
72576;DHT22;60613;48.658;2.328;2022-07-09T14:56:04;27.10;39.20
72576;DHT22;60613;48.658;2.328;2022-07-09T14:58:30;27.10;39.20
72576;DHT22;60613;48.658;2.328;2022-07-09T15:00:57;27.10;39.30
72576;DHT22;60613;48.658;2.328;2022-07-09T15:03:23;27.10;39.30
72576;DHT22;60613;48.658;2.328;2022-07-09T15:05:49;27.10;39.20
72576;DHT22;60613;48.658;2.328;2022-07-09T15:08:14;27.10;39.20
72576;DHT22;60613;48.658;2.328;2022-07-09T15:10:40;27.10;39.30
72576;DHT22;60613;48.658;2.328;2022-07-09T15:13:06;27.10;39.20
72576;DHT22;60613;48.658;2.328;2022-07-09T15:15:33;27.20;39.30
72576;DHT22;60613;48.658;2.328;2022-07-09T15:18:00;27.20;39.30
72576;DHT22;60613;48.658;2.328;2022-07-09T15:20:26;27.20;39.30
72576;DHT22;60613;48.658;2.328;2022-07-09T15:22:54;27.20;39.30
72576;DHT22;60613;48.658;2.328;2022-07-09T15:25:20;27.20;39.30
72576;DHT22;60613;48.658;2.328;2022-07-09T15:27:46;27.20;39.30
72576;DHT22;60613;48.658;2.328;2022-07-09T15:30:12;27.20;39.30
72576;DHT22;60613;48.658;2.328;2022-07-09T15:32:38;27.20;39.30